createdAt,value
2022-08-17T00:02:26.756Z,65.25
2022-08-17T00:04:55.546Z,66.19
2022-08-17T00:07:23.108Z,66.37
2022-08-17T00:09:49.870Z,66.92
2022-08-17T00:12:41.925Z,64.89
2022-08-17T00:15:04.938Z,65.05
2022-08-17T00:17:31.639Z,65.62
2022-08-17T00:19:58.312Z,64.18
2022-08-17T00:22:32.032Z,65.04
2022-08-17T00:25:03.053Z,65.66
2022-08-17T00:27:29.661Z,66.50
2022-08-17T00:29:57.449Z,66.16
2022-08-17T00:33:15.478Z,65.75
2022-08-17T00:35:15.030Z,65.42
2022-08-17T00:37:41.930Z,64.79
2022-08-17T00:40:11.445Z,63.94
2022-08-17T00:42:40.304Z,63.91
2022-08-17T00:45:10.730Z,62.96
2022-08-17T00:47:37.748Z,63.71
2022-08-17T00:50:07.223Z,64.25
2022-08-17T00:52:39.763Z,64.24
2022-08-17T00:55:08.117Z,65.59
2022-08-17T00:57:46.949Z,66.83
2022-08-17T01:00:29.039Z,67.67
2022-08-17T01:03:06.402Z,68.09
2022-08-17T01:05:35.182Z,68.80
2022-08-17T01:08:02.653Z,68.37
2022-08-17T01:10:58.556Z,67.98
2022-08-17T01:13:31.060Z,68.64
2022-08-17T01:16:06.000Z,68.50
2022-08-17T01:18:33.917Z,68.05
2022-08-17T01:21:08.046Z,68.93
2022-08-17T01:23:38.969Z,68.95
2022-08-17T01:26:06.581Z,68.63
2022-08-17T01:28:53.965Z,66.99
2022-08-17T01:31:25.109Z,68.10
2022-08-17T01:33:52.239Z,69.12
2022-08-17T01:36:18.925Z,68.26
2022-08-17T01:38:47.101Z,68.44
2022-08-17T01:41:16.678Z,68.89
2022-08-17T01:43:55.144Z,68.64
2022-08-17T01:46:28.112Z,68.12
2022-08-17T01:48:57.667Z,67.38
2022-08-17T01:51:34.127Z,67.26
2022-08-17T01:54:06.209Z,68.17
2022-08-17T01:56:34.208Z,67.60
2022-08-17T01:59:00.943Z,68.29
2022-08-17T02:01:31.017Z,66.88
2022-08-17T02:04:01.215Z,67.21
2022-08-17T02:06:52.782Z,68.23
2022-08-17T02:09:23.989Z,68.20
2022-08-17T02:11:59.344Z,69.35
2022-08-17T02:14:26.357Z,68.61
2022-08-17T02:16:53.869Z,68.95
2022-08-17T02:19:20.550Z,67.90
2022-08-17T02:21:49.076Z,67.70
2022-08-17T02:25:01.189Z,66.92
2022-08-17T02:27:24.723Z,65.79
2022-08-17T02:29:51.390Z,65.02
2022-08-17T02:32:38.012Z,63.91
2022-08-17T02:35:05.813Z,63.03
2022-08-17T02:37:33.263Z,62.08
2022-08-17T02:40:00.171Z,61.78
2022-08-17T02:42:30.002Z,61.41
2022-08-17T02:44:57.899Z,61.01
2022-08-17T02:47:25.102Z,59.34
2022-08-17T02:49:54.313Z,60.35
2022-08-17T02:52:43.191Z,60.09
2022-08-17T02:55:27.154Z,58.65
2022-08-17T02:57:54.530Z,58.06
2022-08-17T03:00:36.074Z,58.06
2022-08-17T03:03:14.030Z,58.84
2022-08-17T03:05:42.073Z,61.03
2022-08-17T03:08:13.043Z,61.02
2022-08-17T03:10:39.990Z,60.42
2022-08-17T03:13:06.695Z,61.00
2022-08-17T03:15:35.693Z,60.87
2022-08-17T03:18:07.587Z,61.57
2022-08-17T03:20:43.919Z,62.41
2022-08-17T03:23:10.655Z,63.42
2022-08-17T03:25:41.429Z,63.53
2022-08-17T03:28:12.198Z,63.99
2022-08-17T03:30:43.818Z,63.85
2022-08-17T03:33:11.140Z,65.27
2022-08-17T03:35:40.643Z,64.92
2022-08-17T03:38:12.333Z,65.98
2022-08-17T03:40:57.766Z,65.98
2022-08-17T03:43:29.841Z,65.93
2022-08-17T03:46:28.401Z,65.58
2022-08-17T03:49:21.949Z,65.32
2022-08-17T03:52:07.145Z,65.30
2022-08-17T03:54:52.271Z,66.14
2022-08-17T03:57:20.249Z,66.00
2022-08-17T03:59:47.642Z,65.97
2022-08-17T04:02:22.015Z,65.45
2022-08-17T04:04:55.123Z,65.60
2022-08-17T04:07:27.908Z,66.31
2022-08-17T04:09:54.778Z,65.17
2022-08-17T04:12:24.665Z,64.90
2022-08-17T04:14:54.688Z,64.17
2022-08-17T04:17:24.616Z,62.83
2022-08-17T04:19:54.853Z,62.39
2022-08-17T04:22:30.423Z,61.78
2022-08-17T04:25:17.950Z,61.29
2022-08-17T04:27:45.888Z,61.35
2022-08-17T04:30:12.950Z,61.20
2022-08-17T04:33:05.090Z,60.74
2022-08-17T04:35:41.230Z,58.32
2022-08-17T04:38:10.464Z,58.49
2022-08-17T04:40:59.402Z,59.46
2022-08-17T04:43:38.958Z,60.51
2022-08-17T04:46:10.444Z,61.38
2022-08-17T04:48:42.774Z,59.45
2022-08-17T04:51:16.123Z,58.37
2022-08-17T04:53:54.327Z,59.30
2022-08-17T04:56:22.732Z,60.64
2022-08-17T04:59:05.155Z,61.45
2022-08-17T05:01:44.615Z,60.99
2022-08-17T05:04:34.050Z,61.43
2022-08-17T05:07:04.369Z,62.10
2022-08-17T05:09:31.747Z,61.12
2022-08-17T05:12:02.522Z,60.65
2022-08-17T05:14:33.450Z,61.98
2022-08-17T05:17:01.168Z,63.11
2022-08-17T05:19:29.271Z,60.37
2022-08-17T05:21:55.904Z,60.80
2022-08-17T05:24:38.686Z,59.43
2022-08-17T05:27:10.491Z,58.27
2022-08-17T05:29:44.810Z,57.29
2022-08-17T05:32:38.391Z,57.78
2022-08-17T05:35:00.773Z,56.44
2022-08-17T05:37:28.026Z,55.81
2022-08-17T05:39:54.853Z,51.38
2022-08-17T05:42:21.704Z,48.33
2022-08-17T05:44:48.443Z,48.67
2022-08-17T05:47:18.414Z,47.21
2022-08-17T05:49:45.494Z,48.34
2022-08-17T05:52:40.745Z,45.43
2022-08-17T05:55:21.436Z,46.51
2022-08-17T05:57:53.702Z,44.21
2022-08-17T06:00:26.259Z,44.72
2022-08-17T06:03:25.994Z,42.61
2022-08-17T06:06:20.326Z,42.01
2022-08-17T06:09:25.745Z,41.82
2022-08-17T06:12:18.891Z,39.87
2022-08-17T06:14:59.019Z,40.96
2022-08-17T06:17:33.431Z,40.22
2022-08-17T06:20:07.083Z,42.28
2022-08-17T06:22:50.950Z,38.64
2022-08-17T06:25:23.976Z,39.09
2022-08-17T06:27:58.536Z,38.81
2022-08-17T06:30:28.755Z,39.36
2022-08-17T06:33:31.055Z,40.78
2022-08-17T06:36:35.314Z,41.29
2022-08-17T06:39:37.953Z,37.12
2022-08-17T06:42:54.738Z,39.36
2022-08-17T06:45:24.383Z,36.89
2022-08-17T06:48:18.280Z,38.83
2022-08-17T06:50:55.782Z,37.57
2022-08-17T06:53:53.079Z,36.14
2022-08-17T06:56:55.575Z,37.23
2022-08-17T07:00:04.823Z,39.17
2022-08-17T07:02:56.190Z,38.04
2022-08-17T07:05:44.270Z,35.28
2022-08-17T07:08:23.418Z,36.05
2022-08-17T07:10:57.342Z,38.65
2022-08-17T07:13:51.410Z,35.79
2022-08-17T07:16:32.526Z,37.20
2022-08-17T07:19:04.671Z,36.54
2022-08-17T07:21:47.162Z,35.44
2022-08-17T07:24:30.721Z,35.23
2022-08-17T07:27:31.351Z,35.61
2022-08-17T07:30:01.427Z,35.65
2022-08-17T07:32:40.359Z,36.65
2022-08-17T07:35:17.784Z,35.73
2022-08-17T07:37:55.417Z,35.75
2022-08-17T07:41:09.958Z,35.76
2022-08-17T07:43:50.052Z,36.02
2022-08-17T07:47:07.818Z,35.81
2022-08-17T07:49:42.519Z,34.16
2022-08-17T07:52:50.672Z,33.40
2022-08-17T07:55:36.020Z,33.43
2022-08-17T07:58:04.195Z,33.37
2022-08-17T08:00:33.062Z,35.32
2022-08-17T08:03:20.433Z,32.00
2022-08-17T08:06:00.301Z,33.39
2022-08-17T08:08:43.729Z,34.46
2022-08-17T08:11:15.522Z,33.54
2022-08-17T08:13:45.762Z,34.16
2022-08-17T08:16:31.929Z,31.09
2022-08-17T08:19:01.821Z,32.11
2022-08-17T08:22:11.756Z,33.08
2022-08-17T08:25:00.081Z,32.08
2022-08-17T08:27:52.954Z,35.17
2022-08-17T08:30:21.672Z,33.14
2022-08-17T08:33:07.720Z,32.18
2022-08-17T08:35:53.933Z,31.55
2022-08-17T08:38:26.072Z,33.44
2022-08-17T08:41:16.562Z,30.76
2022-08-17T08:43:58.526Z,31.69
2022-08-17T08:46:59.979Z,30.71
2022-08-17T08:50:01.962Z,31.91
2022-08-17T08:52:34.385Z,31.21
2022-08-17T08:55:18.611Z,29.02
2022-08-17T08:58:32.212Z,30.03
2022-08-17T09:01:33.609Z,28.44
2022-08-17T09:04:24.537Z,29.69
2022-08-17T09:07:35.070Z,29.68
2022-08-17T09:10:17.056Z,32.95
2022-08-17T09:13:10.726Z,33.29
2022-08-17T09:15:51.547Z,30.13
2022-08-17T09:18:59.923Z,29.84
2022-08-17T09:22:02.055Z,30.54
2022-08-17T09:25:00.986Z,28.04
2022-08-17T09:27:52.912Z,27.50
2022-08-17T09:30:21.130Z,29.96
2022-08-17T09:32:58.903Z,32.36
2022-08-17T09:35:44.396Z,31.05
2022-08-17T09:38:43.940Z,31.63
2022-08-17T09:41:23.973Z,32.38
2022-08-17T09:44:22.710Z,36.68
2022-08-17T09:47:14.550Z,33.74
2022-08-17T09:50:00.438Z,32.79
2022-08-17T09:52:31.274Z,31.57
2022-08-17T09:55:01.520Z,32.44
2022-08-17T09:57:50.075Z,29.93
2022-08-17T10:00:34.159Z,29.56
2022-08-17T10:03:26.201Z,27.97
2022-08-17T10:06:22.237Z,31.02
2022-08-17T10:09:22.255Z,30.58
2022-08-17T10:12:18.042Z,32.70
2022-08-17T10:15:18.839Z,32.18
2022-08-17T10:18:10.940Z,32.64
2022-08-17T10:20:47.086Z,34.74
2022-08-17T10:23:43.021Z,32.59
2022-08-17T10:26:25.100Z,35.39
2022-08-17T10:28:55.365Z,32.43
2022-08-17T10:31:45.639Z,34.23
2022-08-17T10:34:24.415Z,32.71
2022-08-17T10:37:12.116Z,32.64
2022-08-17T10:39:52.934Z,35.23
2022-08-17T10:42:59.210Z,36.28
2022-08-17T10:45:34.196Z,34.37
2022-08-17T10:48:34.134Z,32.12
2022-08-17T10:51:09.760Z,30.12
2022-08-17T10:53:36.550Z,31.86
2022-08-17T10:56:21.973Z,30.04
2022-08-17T10:59:01.920Z,28.73
2022-08-17T11:01:37.391Z,26.92
2022-08-17T11:04:36.104Z,28.25
2022-08-17T11:07:17.809Z,27.77
2022-08-17T11:09:53.703Z,27.71
2022-08-17T11:12:24.502Z,28.61
2022-08-17T11:15:28.409Z,30.93
2022-08-17T11:18:36.331Z,31.12
2022-08-17T11:21:32.477Z,31.05
2022-08-17T11:24:31.463Z,31.71
2022-08-17T11:27:34.238Z,33.26
2022-08-17T11:30:04.006Z,29.19
2022-08-17T11:32:47.591Z,30.02
2022-08-17T11:35:21.637Z,28.71
2022-08-17T11:38:28.499Z,31.91
2022-08-17T11:41:10.777Z,34.19
2022-08-17T11:43:59.016Z,35.46
2022-08-17T11:47:08.718Z,38.08
2022-08-17T11:49:53.873Z,38.91
2022-08-17T11:52:55.536Z,34.70
2022-08-17T11:55:41.772Z,36.58
2022-08-17T11:58:29.927Z,35.18
2022-08-17T12:01:00.916Z,37.88
2022-08-17T12:03:33.748Z,37.62
2022-08-17T12:06:05.791Z,37.84
2022-08-17T12:08:38.746Z,36.22
2022-08-17T12:11:58.700Z,38.05
2022-08-17T12:14:51.351Z,36.29
2022-08-17T12:17:39.443Z,39.05
2022-08-17T12:20:33.623Z,36.90
2022-08-17T12:23:23.276Z,36.88
2022-08-17T12:26:07.292Z,36.03
2022-08-17T12:28:36.902Z,36.69
2022-08-17T12:31:12.285Z,35.55
2022-08-17T12:33:43.903Z,35.83
2022-08-17T12:36:15.669Z,33.93
2022-08-17T12:39:13.985Z,32.75
2022-08-17T12:41:47.740Z,32.86
2022-08-17T12:44:23.380Z,32.02
2022-08-17T12:47:22.646Z,33.37
2022-08-17T12:50:28.282Z,30.81
2022-08-17T12:53:01.747Z,33.36
2022-08-17T12:55:37.537Z,31.19
2022-08-17T12:58:05.021Z,32.46
2022-08-17T13:00:47.269Z,34.21
2022-08-17T13:03:41.862Z,32.09
2022-08-17T13:06:12.000Z,32.41
2022-08-17T13:08:48.095Z,31.30
2022-08-17T13:11:25.476Z,34.30
2022-08-17T13:13:56.575Z,33.33
2022-08-17T13:16:30.803Z,32.29
2022-08-17T13:19:17.588Z,33.47
2022-08-17T13:21:48.465Z,33.75
2022-08-17T13:24:26.736Z,33.38
2022-08-17T13:27:12.400Z,34.97
2022-08-17T13:29:51.369Z,34.46
2022-08-17T13:32:33.841Z,34.93
2022-08-17T13:35:14.993Z,34.63
2022-08-17T13:38:16.894Z,35.49
2022-08-17T13:40:50.112Z,36.35
2022-08-17T13:43:38.737Z,37.75
2022-08-17T13:46:12.094Z,44.48
2022-08-17T13:48:39.600Z,44.44
2022-08-17T13:51:14.270Z,48.20
2022-08-17T13:53:40.863Z,45.67
2022-08-17T13:56:55.050Z,45.63
2022-08-17T13:59:52.956Z,44.97
2022-08-17T14:02:22.086Z,43.24
2022-08-17T14:04:49.284Z,42.75
2022-08-17T14:07:16.356Z,40.00
2022-08-17T14:09:56.119Z,40.19
2022-08-17T14:12:26.107Z,41.34
2022-08-17T14:14:56.677Z,43.29
2022-08-17T14:17:26.936Z,43.01
2022-08-17T14:19:53.610Z,41.37
2022-08-17T14:22:31.048Z,42.03
2022-08-17T14:25:12.310Z,42.20
2022-08-17T14:27:43.574Z,40.90
2022-08-17T14:30:22.950Z,40.45
2022-08-17T14:32:52.599Z,41.11
2022-08-17T14:35:24.975Z,39.82
2022-08-17T14:37:53.659Z,40.13
2022-08-17T14:40:25.208Z,42.15
2022-08-17T14:42:56.196Z,39.96
2022-08-17T14:45:29.850Z,38.05
2022-08-17T14:48:08.124Z,39.41
2022-08-17T14:50:36.507Z,39.73
2022-08-17T14:53:05.538Z,40.79
2022-08-17T14:55:34.715Z,40.39
2022-08-17T14:58:03.550Z,38.60
2022-08-17T15:00:32.496Z,40.23
2022-08-17T15:03:01.272Z,38.21
2022-08-17T15:05:32.079Z,37.71
2022-08-17T15:08:01.050Z,37.27
2022-08-17T15:10:29.408Z,37.66
2022-08-17T15:12:57.450Z,38.81
2022-08-17T15:15:25.771Z,37.66
2022-08-17T15:17:52.909Z,37.74
2022-08-17T15:20:23.926Z,38.06
2022-08-17T15:23:00.882Z,37.69
2022-08-17T15:25:30.612Z,37.46
2022-08-17T15:27:57.633Z,37.88
2022-08-17T15:30:26.122Z,37.47
2022-08-17T15:32:55.358Z,37.10
2022-08-17T15:35:30.511Z,35.91
2022-08-17T15:38:11.660Z,36.84
2022-08-17T15:40:43.202Z,39.01
2022-08-17T15:43:13.627Z,37.46
2022-08-17T15:45:40.860Z,37.87
2022-08-17T15:48:14.624Z,37.88
2022-08-17T15:50:43.244Z,36.92
2022-08-17T15:53:09.895Z,36.30
2022-08-17T15:55:59.048Z,36.57
2022-08-17T15:58:35.627Z,35.49
2022-08-17T16:01:14.834Z,36.39
2022-08-17T16:04:05.011Z,35.95
2022-08-17T16:06:34.854Z,36.78
2022-08-17T16:09:04.266Z,36.70
2022-08-17T16:11:31.003Z,37.83
2022-08-17T16:13:57.705Z,36.85
2022-08-17T16:16:24.529Z,37.49
2022-08-17T16:18:58.302Z,37.21
2022-08-17T16:21:26.436Z,37.81
2022-08-17T16:23:57.172Z,38.62
2022-08-17T16:26:24.279Z,38.92
2022-08-17T16:28:54.808Z,39.36
2022-08-17T16:31:21.858Z,40.56
2022-08-17T16:34:16.327Z,40.87
2022-08-17T16:36:37.846Z,42.62
2022-08-17T16:39:04.911Z,43.00
2022-08-17T16:41:44.382Z,42.96
2022-08-17T16:44:15.545Z,42.59
2022-08-17T16:46:46.490Z,43.39
2022-08-17T16:49:36.671Z,43.23
2022-08-17T16:52:10.352Z,43.31
2022-08-17T16:54:39.694Z,42.64
2022-08-17T16:57:06.380Z,43.16
2022-08-17T16:59:42.229Z,44.26
2022-08-17T17:02:20.338Z,43.97
2022-08-17T17:05:13.191Z,44.60
2022-08-17T17:08:01.161Z,42.85
2022-08-17T17:10:44.583Z,44.73
2022-08-17T17:13:17.783Z,43.95
2022-08-17T17:15:44.420Z,43.73
2022-08-17T17:18:16.850Z,44.18
2022-08-17T17:20:53.548Z,45.09
2022-08-17T17:23:46.300Z,45.10
2022-08-17T17:26:34.289Z,46.42
2022-08-17T17:29:18.379Z,46.74
2022-08-17T17:32:04.623Z,46.80
2022-08-17T17:34:35.894Z,45.34
2022-08-17T17:37:12.056Z,46.30
2022-08-17T17:39:53.913Z,46.50
2022-08-17T17:42:33.927Z,44.64
2022-08-17T17:45:23.632Z,46.38
2022-08-17T17:47:50.806Z,46.05
2022-08-17T17:50:42.493Z,45.68
2022-08-17T17:53:35.453Z,45.06
2022-08-17T17:56:43.110Z,45.41
2022-08-17T17:59:27.255Z,42.62
2022-08-17T18:01:57.261Z,43.76
2022-08-17T18:04:32.418Z,42.50
2022-08-17T18:07:15.352Z,42.59
2022-08-17T18:10:01.164Z,42.00
2022-08-17T18:12:35.220Z,43.30
2022-08-17T18:15:08.117Z,42.21
2022-08-17T18:17:36.379Z,41.63
2022-08-17T18:20:05.003Z,41.12
2022-08-17T18:22:50.519Z,41.97
2022-08-17T18:25:45.588Z,41.87
2022-08-17T18:28:41.241Z,43.29
2022-08-17T18:31:27.109Z,43.53
2022-08-17T18:34:36.143Z,42.05
2022-08-17T18:37:06.707Z,41.99
2022-08-17T18:39:34.038Z,40.71
2022-08-17T18:42:03.651Z,40.34
2022-08-17T18:44:39.586Z,40.95
2022-08-17T18:47:13.312Z,40.06
2022-08-17T18:49:41.859Z,39.96
2022-08-17T18:52:24.705Z,40.66
2022-08-17T18:55:06.387Z,41.04
2022-08-17T18:57:40.129Z,39.11
2022-08-17T19:00:40.675Z,39.36
2022-08-17T19:03:16.390Z,40.09
2022-08-17T19:05:50.036Z,38.94
2022-08-17T19:08:20.963Z,39.66
2022-08-17T19:10:55.846Z,40.25
2022-08-17T19:13:51.596Z,39.18
2022-08-17T19:16:30.603Z,39.95
2022-08-17T19:19:04.990Z,39.94
2022-08-17T19:21:38.389Z,38.99
2022-08-17T19:24:19.721Z,39.40
2022-08-17T19:27:01.033Z,38.52
2022-08-17T19:29:39.110Z,39.44
2022-08-17T19:32:08.991Z,40.42
2022-08-17T19:34:38.031Z,41.10
2022-08-17T19:37:23.348Z,42.29
2022-08-17T19:40:52.393Z,41.77
2022-08-17T19:43:50.608Z,40.65
2022-08-17T19:46:48.601Z,43.23
2022-08-17T19:49:33.374Z,43.95
2022-08-17T19:52:33.028Z,43.40
2022-08-17T19:55:22.896Z,43.03
2022-08-17T19:58:18.035Z,42.78
2022-08-17T20:00:52.625Z,43.27
2022-08-17T20:03:52.348Z,42.21
2022-08-17T20:06:23.641Z,42.90
2022-08-17T20:09:14.964Z,43.98
2022-08-17T20:12:22.051Z,43.24
2022-08-17T20:15:06.643Z,44.53
2022-08-17T20:17:47.576Z,43.23
2022-08-17T20:20:26.401Z,42.96
2022-08-17T20:23:33.885Z,43.70
2022-08-17T20:26:00.558Z,45.11
2022-08-17T20:28:31.738Z,43.67
2022-08-17T20:30:59.674Z,42.98
2022-08-17T20:33:34.324Z,43.91
2022-08-17T20:36:22.783Z,42.33
2022-08-17T20:38:56.586Z,42.89
2022-08-17T20:41:30.089Z,43.53
2022-08-17T20:43:56.663Z,43.14
2022-08-17T20:46:38.647Z,42.94
2022-08-17T20:49:14.609Z,43.54
2022-08-17T20:52:01.245Z,43.77
2022-08-17T20:54:51.990Z,43.18
2022-08-17T20:57:38.934Z,43.63
2022-08-17T21:00:28.103Z,44.69
2022-08-17T21:03:47.599Z,45.34
2022-08-17T21:06:18.283Z,45.39
2022-08-17T21:08:58.712Z,44.71
2022-08-17T21:11:57.288Z,43.52
2022-08-17T21:14:52.019Z,43.01
2022-08-17T21:17:42.687Z,42.84
2022-08-17T21:20:39.164Z,43.91
2022-08-17T21:23:34.097Z,43.39
2022-08-17T21:26:31.152Z,43.43
2022-08-17T21:29:31.376Z,43.24
2022-08-17T21:32:05.646Z,43.68
2022-08-17T21:35:09.181Z,45.52
2022-08-17T21:37:45.000Z,44.25
2022-08-17T21:40:19.913Z,43.18
2022-08-17T21:43:00.950Z,43.56
2022-08-17T21:45:37.258Z,43.54
2022-08-17T21:48:27.683Z,43.53
2022-08-17T21:51:02.982Z,44.52
2022-08-17T21:53:45.375Z,42.53
2022-08-17T21:56:22.340Z,43.56
2022-08-17T21:59:16.081Z,43.68
2022-08-17T22:01:43.130Z,43.45
2022-08-17T22:04:12.849Z,43.22
2022-08-17T22:06:41.078Z,43.42
2022-08-17T22:09:18.585Z,42.79
2022-08-17T22:11:57.403Z,43.56
2022-08-17T22:14:52.264Z,44.86
2022-08-17T22:17:47.228Z,42.58
2022-08-17T22:20:19.377Z,44.22
2022-08-17T22:23:13.963Z,43.78
2022-08-17T22:26:06.631Z,43.71
2022-08-17T22:28:47.668Z,43.11
2022-08-17T22:31:38.803Z,43.15
2022-08-17T22:34:13.708Z,42.87
2022-08-17T22:36:42.322Z,43.54
2022-08-17T22:39:08.937Z,43.62
2022-08-17T22:41:43.815Z,43.23
2022-08-17T22:44:19.324Z,44.31
2022-08-17T22:47:15.235Z,44.63
2022-08-17T22:49:53.931Z,44.11
2022-08-17T22:52:32.404Z,44.03
2022-08-17T22:55:50.122Z,44.21
2022-08-17T22:58:38.463Z,44.73
2022-08-17T23:01:28.943Z,44.59
2022-08-17T23:04:01.858Z,43.97
2022-08-17T23:06:30.008Z,44.68
2022-08-17T23:08:58.114Z,45.40
2022-08-17T23:11:36.785Z,45.44
2022-08-17T23:14:16.013Z,44.04
2022-08-17T23:16:43.775Z,45.18
2022-08-17T23:19:16.793Z,44.70
2022-08-17T23:21:46.965Z,44.91
2022-08-17T23:24:28.566Z,45.07
2022-08-17T23:26:57.962Z,46.43
2022-08-17T23:29:27.690Z,44.01
2022-08-17T23:31:54.899Z,44.85
2022-08-17T23:34:23.250Z,45.19
2022-08-17T23:36:54.397Z,43.84
2022-08-17T23:39:27.401Z,44.25
2022-08-17T23:41:56.957Z,44.84
2022-08-17T23:44:24.693Z,44.85
2022-08-17T23:46:52.228Z,44.22
2022-08-17T23:49:20.762Z,45.71
2022-08-17T23:51:48.913Z,45.77
2022-08-17T23:54:26.856Z,44.23
2022-08-17T23:56:53.791Z,45.55
2022-08-17T23:59:23.052Z,44.84
